Lapseki, Turkey
Current Conditions -  °F | °C
As of 5:50 AM on Friday 19 Dec 2014 (Local Time) from LTBH Reporting Station
Clear Clear  
Wind Chill:   Ceiling: Unl
Heat Index:   Visibility: 5mi
Dew Point:   Wind: 3mph
Humidity: 100%   Direction: 60°ENE
Pressure: 30.12"   Gusts: NA
Location:  40.34°N, 26.69°E
Report Text: LTBH 190250Z 06003KT 8000 NSC 07/07 Q1020
Loading
Personal Weather Stations






























Interactive Weather Map New forecast layout! Learn more

10-Day Weather Forecast

Advertisements
Track Severe Weather on mobile